createdAt,value
2022-09-25T00:01:29.532Z,15.90
2022-09-25T00:04:16.306Z,15.80
2022-09-25T00:07:02.133Z,15.90
2022-09-25T00:09:47.527Z,16.10
2022-09-25T00:12:33.228Z,16.00
2022-09-25T00:15:19.137Z,16.10
2022-09-25T00:18:05.329Z,16.20
2022-09-25T00:21:01.183Z,16.50
2022-09-25T00:23:47.236Z,16.50
2022-09-25T00:26:34.887Z,16.60
2022-09-25T00:29:20.784Z,16.40
2022-09-25T00:32:08.266Z,16.60
2022-09-25T00:34:56.428Z,16.40
2022-09-25T00:37:41.660Z,16.50
2022-09-25T00:40:28.021Z,16.50
2022-09-25T00:43:37.764Z,16.70
2022-09-25T00:46:32.648Z,16.50
2022-09-25T00:49:23.822Z,16.50
2022-09-25T00:52:13.303Z,16.30
2022-09-25T00:55:07.266Z,16.10
2022-09-25T00:57:55.567Z,16.10
2022-09-25T01:00:41.749Z,16.60
2022-09-25T01:03:28.013Z,16.80
2022-09-25T01:06:14.937Z,16.90
2022-09-25T01:09:00.542Z,17.00
2022-09-25T01:11:46.231Z,16.90
2022-09-25T01:14:34.167Z,16.80
2022-09-25T01:17:41.994Z,16.50
2022-09-25T01:20:59.996Z,16.50
2022-09-25T01:24:14.613Z,16.80
2022-09-25T01:27:30.891Z,16.90
2022-09-25T01:30:19.379Z,16.90
2022-09-25T01:33:09.996Z,16.90
2022-09-25T01:36:16.471Z,17.00
2022-09-25T01:39:17.791Z,17.00
2022-09-25T01:42:10.584Z,16.80
2022-09-25T01:45:04.439Z,16.90
2022-09-25T01:47:52.012Z,16.90
2022-09-25T01:51:04.116Z,16.90
2022-09-25T01:53:58.244Z,16.90
2022-09-25T01:56:54.238Z,16.80
2022-09-25T01:59:49.466Z,16.70
2022-09-25T02:02:41.792Z,16.80
2022-09-25T02:05:45.289Z,16.80
2022-09-25T02:08:38.100Z,16.90
2022-09-25T02:11:29.657Z,16.70
2022-09-25T02:14:26.435Z,16.70
2022-09-25T02:17:37.369Z,16.70
2022-09-25T02:20:33.911Z,16.70
2022-09-25T02:23:28.839Z,16.80
2022-09-25T02:26:35.334Z,16.60
2022-09-25T02:29:21.066Z,16.60
2022-09-25T02:32:11.186Z,16.50
2022-09-25T02:35:00.251Z,16.50
2022-09-25T02:37:46.804Z,16.50
2022-09-25T02:40:50.762Z,16.60
2022-09-25T02:43:57.897Z,16.60
2022-09-25T02:47:03.699Z,16.40
2022-09-25T02:50:12.671Z,16.40
2022-09-25T02:53:19.762Z,16.60
2022-09-25T02:56:28.843Z,16.30
2022-09-25T02:59:23.302Z,16.40
2022-09-25T03:02:11.782Z,16.50
2022-09-25T03:04:59.416Z,16.80
2022-09-25T03:08:03.573Z,17.00
2022-09-25T03:10:49.237Z,16.90
2022-09-25T03:13:35.190Z,16.50
2022-09-25T03:16:44.177Z,16.60
2022-09-25T03:19:30.227Z,16.90
2022-09-25T03:22:15.758Z,17.00
2022-09-25T03:25:01.187Z,17.20
2022-09-25T03:27:48.622Z,17.20
2022-09-25T03:30:35.648Z,16.90
2022-09-25T03:33:21.029Z,16.80
2022-09-25T03:36:12.922Z,16.80
2022-09-25T03:38:59.525Z,16.80
2022-09-25T03:41:45.566Z,16.60
2022-09-25T03:44:31.310Z,16.40
2022-09-25T03:47:16.769Z,16.80
2022-09-25T03:50:02.106Z,17.00
2022-09-25T03:52:47.845Z,17.20
2022-09-25T03:55:33.743Z,17.10
2022-09-25T03:58:20.085Z,17.10
2022-09-25T04:01:06.703Z,17.20
2022-09-25T04:03:52.427Z,17.20
2022-09-25T04:06:38.104Z,17.10
2022-09-25T04:09:23.638Z,16.60
2022-09-25T04:12:09.268Z,16.60
2022-09-25T04:14:55.062Z,17.00
2022-09-25T04:17:40.523Z,16.80
2022-09-25T04:20:26.052Z,16.80
2022-09-25T04:23:11.540Z,16.90
2022-09-25T04:25:57.763Z,17.00
2022-09-25T04:28:45.347Z,17.10
2022-09-25T04:31:33.381Z,17.00
2022-09-25T04:34:18.876Z,17.00
2022-09-25T04:37:04.759Z,17.20
2022-09-25T04:39:50.371Z,17.20
2022-09-25T04:42:35.995Z,17.20
2022-09-25T04:45:21.350Z,17.00
2022-09-25T04:48:06.929Z,17.10
2022-09-25T04:50:52.921Z,17.00
2022-09-25T04:53:41.547Z,17.00
2022-09-25T04:56:27.181Z,17.10
2022-09-25T04:59:12.707Z,17.10
2022-09-25T05:01:58.594Z,17.10
2022-09-25T05:04:44.345Z,17.20
2022-09-25T05:07:29.925Z,17.20
2022-09-25T05:10:15.557Z,17.20
2022-09-25T05:13:03.075Z,17.20
2022-09-25T05:15:48.785Z,17.00
2022-09-25T05:18:34.526Z,16.60
2022-09-25T05:21:20.225Z,16.70
2022-09-25T05:24:05.964Z,16.80
2022-09-25T05:26:51.694Z,16.70
2022-09-25T05:29:37.406Z,16.40
2022-09-25T05:32:23.267Z,16.30
2022-09-25T05:35:11.175Z,16.10
2022-09-25T05:37:57.291Z,16.00
2022-09-25T05:40:43.335Z,16.30
2022-09-25T05:43:29.015Z,16.70
2022-09-25T05:46:16.204Z,16.70
2022-09-25T05:49:02.627Z,16.80
2022-09-25T05:51:48.422Z,17.00
2022-09-25T05:54:34.391Z,17.00
2022-09-25T05:57:20.245Z,16.80
2022-09-25T06:00:09.502Z,16.80
2022-09-25T06:02:58.557Z,16.80
2022-09-25T06:05:46.695Z,16.90
2022-09-25T06:08:33.182Z,16.80
2022-09-25T06:11:18.972Z,16.70
2022-09-25T06:14:04.473Z,16.60
2022-09-25T06:16:50.485Z,16.40
2022-09-25T06:19:36.051Z,16.40
2022-09-25T06:22:21.917Z,16.60
2022-09-25T06:25:07.949Z,16.60
2022-09-25T06:27:59.876Z,16.70
2022-09-25T06:30:45.518Z,16.40
2022-09-25T06:33:31.607Z,16.40
2022-09-25T06:36:17.381Z,16.60
2022-09-25T06:39:03.469Z,16.60
2022-09-25T06:41:49.041Z,16.40
2022-09-25T06:44:39.497Z,16.10
2022-09-25T06:47:27.001Z,16.00
2022-09-25T06:50:15.016Z,16.20
2022-09-25T06:53:01.299Z,15.90
2022-09-25T06:55:47.890Z,15.90
2022-09-25T06:58:33.538Z,16.20
2022-09-25T07:01:19.331Z,16.50
2022-09-25T07:04:04.689Z,16.70
2022-09-25T07:06:50.447Z,16.90
2022-09-25T07:09:36.221Z,16.80
2022-09-25T07:12:21.898Z,16.70
2022-09-25T07:15:08.722Z,16.70
2022-09-25T07:17:54.330Z,16.50
2022-09-25T07:20:40.919Z,16.40
2022-09-25T07:23:26.466Z,16.50
2022-09-25T07:26:14.697Z,16.70
2022-09-25T07:29:03.916Z,16.80
2022-09-25T07:31:50.541Z,16.80
2022-09-25T07:34:37.607Z,17.00
2022-09-25T07:37:23.301Z,17.10
2022-09-25T07:40:12.761Z,17.00
2022-09-25T07:43:05.003Z,16.80
2022-09-25T07:45:53.944Z,17.00
2022-09-25T07:48:39.692Z,16.90
2022-09-25T07:51:26.435Z,16.80
2022-09-25T07:54:12.262Z,16.80
2022-09-25T07:56:58.343Z,16.70
2022-09-25T07:59:44.132Z,16.60
2022-09-25T08:02:30.266Z,16.50
2022-09-25T08:05:15.833Z,16.50
2022-09-25T08:08:01.787Z,16.60
2022-09-25T08:10:47.463Z,16.70
2022-09-25T08:13:34.204Z,16.80
2022-09-25T08:16:22.715Z,16.80
2022-09-25T08:19:08.618Z,17.00
2022-09-25T08:21:54.886Z,16.90
2022-09-25T08:24:41.071Z,16.90
2022-09-25T08:27:26.838Z,17.20
2022-09-25T08:30:13.836Z,17.30
2022-09-25T08:32:59.242Z,17.20
2022-09-25T08:35:44.905Z,17.40
2022-09-25T08:38:34.560Z,17.60
2022-09-25T08:41:27.044Z,17.50
2022-09-25T08:44:34.323Z,17.50
2022-09-25T08:47:44.219Z,17.70
2022-09-25T08:50:30.134Z,17.80
2022-09-25T08:53:24.131Z,18.20
2022-09-25T08:56:15.288Z,18.30
2022-09-25T08:59:30.423Z,18.00
2022-09-25T09:02:17.727Z,17.90
2022-09-25T09:05:05.331Z,17.70
2022-09-25T09:07:57.605Z,17.70
2022-09-25T09:10:53.318Z,17.70
2022-09-25T09:13:47.857Z,17.70
2022-09-25T09:16:41.989Z,18.10
2022-09-25T09:19:27.895Z,18.20
2022-09-25T09:22:15.131Z,17.90
2022-09-25T09:25:09.409Z,17.60
2022-09-25T09:28:44.667Z,17.60
2022-09-25T09:31:33.127Z,17.50
2022-09-25T09:34:46.618Z,17.70
2022-09-25T09:37:44.380Z,17.90
2022-09-25T09:40:51.852Z,18.20
2022-09-25T09:43:43.526Z,18.40
2022-09-25T09:46:35.553Z,18.40
2022-09-25T09:49:58.342Z,18.50
2022-09-25T09:52:46.946Z,19.00
2022-09-25T09:55:44.903Z,19.20
2022-09-25T09:58:50.350Z,19.30
2022-09-25T10:01:42.138Z,19.40
2022-09-25T10:04:34.248Z,19.30
2022-09-25T10:07:23.736Z,19.70
2022-09-25T10:10:14.990Z,19.50
2022-09-25T10:13:06.623Z,19.10
2022-09-25T10:16:01.061Z,18.30
2022-09-25T10:18:49.631Z,18.70
2022-09-25T10:21:51.298Z,19.40
2022-09-25T10:25:05.300Z,20.00
2022-09-25T10:27:53.100Z,20.50
2022-09-25T10:30:46.512Z,19.80
2022-09-25T10:33:32.866Z,19.30
2022-09-25T10:36:31.888Z,18.90
2022-09-25T10:39:45.142Z,19.60
2022-09-25T10:42:41.790Z,20.50
2022-09-25T10:45:34.452Z,20.80
2022-09-25T10:48:50.300Z,20.40
2022-09-25T10:51:59.388Z,19.20
2022-09-25T10:54:46.146Z,18.60
2022-09-25T10:57:38.479Z,19.30
2022-09-25T11:00:26.746Z,19.70
2022-09-25T11:03:34.413Z,19.70
2022-09-25T11:06:34.641Z,19.70
2022-09-25T11:09:23.354Z,20.00
2022-09-25T11:12:23.971Z,19.90
2022-09-25T11:15:18.428Z,20.00
2022-09-25T11:18:06.122Z,20.10
2022-09-25T11:21:03.039Z,19.90
2022-09-25T11:24:13.651Z,19.80
2022-09-25T11:27:14.595Z,19.50
2022-09-25T11:30:13.064Z,19.60
2022-09-25T11:33:06.626Z,19.30
2022-09-25T11:35:57.126Z,20.10
2022-09-25T11:39:15.292Z,20.20
2022-09-25T11:42:14.279Z,20.00
2022-09-25T11:45:15.032Z,19.90
2022-09-25T11:48:12.963Z,19.80
2022-09-25T11:51:18.505Z,20.20
2022-09-25T11:54:38.007Z,20.10
2022-09-25T11:57:36.088Z,20.10
2022-09-25T12:00:27.625Z,19.80
2022-09-25T12:03:16.474Z,19.90
2022-09-25T12:06:20.011Z,20.20
2022-09-25T12:09:32.479Z,19.00
2022-09-25T12:12:31.259Z,19.20
2022-09-25T12:15:56.747Z,19.60
2022-09-25T12:19:05.879Z,19.70
2022-09-25T12:22:36.205Z,19.70
2022-09-25T12:25:49.423Z,19.90
2022-09-25T12:29:04.325Z,20.00
2022-09-25T12:31:53.534Z,20.30
2022-09-25T12:35:17.489Z,20.50
2022-09-25T12:38:12.875Z,20.30
2022-09-25T12:41:24.325Z,19.90
2022-09-25T12:44:27.440Z,20.60
2022-09-25T12:47:17.381Z,20.60
2022-09-25T12:50:29.087Z,21.00
2022-09-25T12:53:35.847Z,21.40
2022-09-25T12:56:44.402Z,20.30
2022-09-25T12:59:42.565Z,19.20
2022-09-25T13:02:57.727Z,18.80
2022-09-25T13:05:52.214Z,18.80
2022-09-25T13:08:51.667Z,18.60
2022-09-25T13:11:50.995Z,18.70
2022-09-25T13:14:42.761Z,18.80
2022-09-25T13:17:29.652Z,19.10
2022-09-25T13:20:31.251Z,19.20
2022-09-25T13:23:43.631Z,19.70
2022-09-25T13:26:32.597Z,19.20
2022-09-25T13:29:31.163Z,19.90
2022-09-25T13:32:29.707Z,21.00
2022-09-25T13:35:19.777Z,21.50
2022-09-25T13:38:14.625Z,21.50
2022-09-25T13:41:00.391Z,21.40
2022-09-25T13:43:49.507Z,21.30
2022-09-25T13:46:37.216Z,20.30
2022-09-25T13:49:36.107Z,19.50
2022-09-25T13:52:40.076Z,20.10
2022-09-25T13:55:25.966Z,20.90
2022-09-25T13:58:31.376Z,21.30
2022-09-25T14:01:39.261Z,21.00
2022-09-25T14:04:36.112Z,20.70
2022-09-25T14:07:25.631Z,20.80
2022-09-25T14:10:12.773Z,20.70
2022-09-25T14:13:04.576Z,20.40
2022-09-25T14:15:56.689Z,20.40
2022-09-25T14:18:49.158Z,21.00
2022-09-25T14:21:37.474Z,20.70
2022-09-25T14:24:29.133Z,20.20
2022-09-25T14:27:21.766Z,19.50
2022-09-25T14:30:14.139Z,19.30
2022-09-25T14:33:15.899Z,19.80
2022-09-25T14:36:38.605Z,19.70
2022-09-25T14:40:14.108Z,20.10
2022-09-25T14:43:21.694Z,20.20
2022-09-25T14:46:12.579Z,20.00
2022-09-25T14:49:23.043Z,19.70
2022-09-25T14:52:13.133Z,19.70
2022-09-25T14:55:00.738Z,19.80
2022-09-25T14:57:48.363Z,19.60
2022-09-25T15:00:35.604Z,19.50
2022-09-25T15:03:31.137Z,19.60
2022-09-25T15:06:26.226Z,19.70
2022-09-25T15:09:35.978Z,19.60
2022-09-25T15:12:25.114Z,19.60
2022-09-25T15:15:13.563Z,20.00
2022-09-25T15:18:02.442Z,19.70
2022-09-25T15:20:49.027Z,19.70
2022-09-25T15:23:38.108Z,19.70
2022-09-25T15:26:23.838Z,19.40
2022-09-25T15:29:18.247Z,19.80
2022-09-25T15:32:05.892Z,20.10
2022-09-25T15:35:04.489Z,20.20
2022-09-25T15:37:50.177Z,20.30
2022-09-25T15:40:36.290Z,20.60
2022-09-25T15:43:22.325Z,20.80
2022-09-25T15:46:08.038Z,20.30
2022-09-25T15:48:58.282Z,20.00
2022-09-25T15:51:52.922Z,19.70
2022-09-25T15:54:44.347Z,19.50
2022-09-25T15:57:32.319Z,19.50
2022-09-25T16:00:42.127Z,19.10
2022-09-25T16:03:48.990Z,19.10
2022-09-25T16:06:40.352Z,19.30
2022-09-25T16:09:32.440Z,19.70
2022-09-25T16:12:33.039Z,20.90
2022-09-25T16:15:27.628Z,20.60
2022-09-25T16:18:19.340Z,21.00
2022-09-25T16:21:19.976Z,21.10
2022-09-25T16:24:10.099Z,21.00
2022-09-25T16:26:57.848Z,20.70
2022-09-25T16:29:44.953Z,20.70
2022-09-25T16:32:30.841Z,20.60
2022-09-25T16:36:05.342Z,20.50
2022-09-25T16:39:02.346Z,20.40
2022-09-25T16:41:49.803Z,20.40
2022-09-25T16:44:46.976Z,20.40
2022-09-25T16:47:35.047Z,20.40
2022-09-25T16:50:21.980Z,20.30
2022-09-25T16:53:08.683Z,20.20
2022-09-25T16:55:54.276Z,20.10
2022-09-25T16:58:39.595Z,20.10
2022-09-25T17:01:27.572Z,20.20
2022-09-25T17:04:15.714Z,20.20
2022-09-25T17:07:01.623Z,20.00
2022-09-25T17:09:47.649Z,19.80
2022-09-25T17:12:34.094Z,19.90
2022-09-25T17:15:31.323Z,19.90
2022-09-25T17:18:19.983Z,19.80
2022-09-25T17:21:11.895Z,19.60
2022-09-25T17:23:57.684Z,19.60
2022-09-25T17:26:43.506Z,19.50
2022-09-25T17:29:29.211Z,19.50
2022-09-25T17:32:17.669Z,19.30
2022-09-25T17:35:14.765Z,19.10
2022-09-25T17:38:04.177Z,19.00
2022-09-25T17:40:52.510Z,19.00
2022-09-25T17:43:42.125Z,19.00
2022-09-25T17:46:28.396Z,19.20
2022-09-25T17:49:14.826Z,19.30
2022-09-25T17:52:01.654Z,19.40
2022-09-25T17:54:49.177Z,19.50
2022-09-25T17:57:37.037Z,19.50
2022-09-25T18:00:22.705Z,19.30
2022-09-25T18:03:08.939Z,19.30
2022-09-25T18:05:55.758Z,19.30
2022-09-25T18:08:42.440Z,19.50
2022-09-25T18:11:28.086Z,19.50
2022-09-25T18:14:15.504Z,19.30
2022-09-25T18:17:01.003Z,19.20
2022-09-25T18:20:04.974Z,19.10
2022-09-25T18:22:50.525Z,19.00
2022-09-25T18:25:40.265Z,19.00
2022-09-25T18:28:25.980Z,18.90
2022-09-25T18:31:12.294Z,19.00
2022-09-25T18:33:58.588Z,18.90
2022-09-25T18:36:44.741Z,18.90
2022-09-25T18:39:31.196Z,18.90
2022-09-25T18:42:19.525Z,19.10
2022-09-25T18:45:07.494Z,19.20
2022-09-25T18:47:54.407Z,19.00
2022-09-25T18:50:41.760Z,19.20
2022-09-25T18:53:29.478Z,19.30
2022-09-25T18:56:17.092Z,19.30
2022-09-25T18:59:08.314Z,19.00
2022-09-25T19:01:58.802Z,18.40
2022-09-25T19:04:45.551Z,18.70
2022-09-25T19:07:33.119Z,18.80
2022-09-25T19:10:21.975Z,18.70
2022-09-25T19:13:10.205Z,18.90
2022-09-25T19:15:59.233Z,18.80
2022-09-25T19:18:46.001Z,18.80
2022-09-25T19:21:33.176Z,18.90
2022-09-25T19:24:20.327Z,18.70
2022-09-25T19:27:06.574Z,18.80
2022-09-25T19:29:55.288Z,18.90
2022-09-25T19:32:43.929Z,18.80
2022-09-25T19:35:30.735Z,18.70
2022-09-25T19:38:16.827Z,18.40
2022-09-25T19:41:05.337Z,18.40
2022-09-25T19:43:53.557Z,18.20
2022-09-25T19:46:41.537Z,18.40
2022-09-25T19:49:27.319Z,18.60
2022-09-25T19:52:15.268Z,18.50
2022-09-25T19:55:01.783Z,18.70
2022-09-25T19:57:49.507Z,18.70
2022-09-25T20:00:44.103Z,18.60
2022-09-25T20:03:30.605Z,18.60
2022-09-25T20:06:17.928Z,18.70
2022-09-25T20:09:05.838Z,18.70
2022-09-25T20:11:53.784Z,18.60
2022-09-25T20:14:40.667Z,18.60
2022-09-25T20:17:29.449Z,18.60
2022-09-25T20:20:15.731Z,18.60
2022-09-25T20:23:02.139Z,18.60
2022-09-25T20:25:57.894Z,18.60
2022-09-25T20:28:45.778Z,17.90
2022-09-25T20:31:32.729Z,18.50
2022-09-25T20:34:21.796Z,18.40
2022-09-25T20:37:13.242Z,18.30
2022-09-25T20:40:01.014Z,18.30
2022-09-25T20:42:47.262Z,18.20
2022-09-25T20:45:35.579Z,17.90
2022-09-25T20:48:21.766Z,17.90
2022-09-25T20:51:10.910Z,18.10
2022-09-25T20:54:02.317Z,18.30
2022-09-25T20:56:48.189Z,18.20
2022-09-25T20:59:35.233Z,18.60
2022-09-25T21:02:22.159Z,18.60
2022-09-25T21:05:09.413Z,18.50
2022-09-25T21:07:54.952Z,18.40
2022-09-25T21:10:41.688Z,18.40
2022-09-25T21:13:34.813Z,18.50
2022-09-25T21:16:23.607Z,18.10
2022-09-25T21:19:13.463Z,18.40
2022-09-25T21:21:59.984Z,18.50
2022-09-25T21:24:46.641Z,18.10
2022-09-25T21:27:34.123Z,17.80
2022-09-25T21:30:21.144Z,18.10
2022-09-25T21:33:06.546Z,17.80
2022-09-25T21:35:52.960Z,18.20
2022-09-25T21:38:40.180Z,18.20
2022-09-25T21:41:27.948Z,18.20
2022-09-25T21:44:17.048Z,18.10
2022-09-25T21:47:04.119Z,18.10
2022-09-25T21:49:51.090Z,18.10
2022-09-25T21:52:38.869Z,18.00
2022-09-25T21:55:24.521Z,18.00
2022-09-25T21:58:10.033Z,18.10
2022-09-25T22:01:13.957Z,18.00
2022-09-25T22:03:59.962Z,18.00
2022-09-25T22:06:47.490Z,18.00
2022-09-25T22:09:33.352Z,17.90
2022-09-25T22:12:19.181Z,17.90
2022-09-25T22:15:05.175Z,17.80
2022-09-25T22:17:50.499Z,17.60
2022-09-25T22:20:38.682Z,17.70
2022-09-25T22:23:25.066Z,17.70
2022-09-25T22:26:11.821Z,17.60
2022-09-25T22:28:57.630Z,17.60
2022-09-25T22:31:44.262Z,17.60
2022-09-25T22:34:30.037Z,17.40
2022-09-25T22:37:18.130Z,17.50
2022-09-25T22:40:03.664Z,17.50
2022-09-25T22:42:49.234Z,17.60
2022-09-25T22:45:34.816Z,17.60
2022-09-25T22:48:20.848Z,17.50
2022-09-25T22:51:10.508Z,17.50
2022-09-25T22:53:56.246Z,17.40
2022-09-25T22:56:42.761Z,17.30
2022-09-25T22:59:28.604Z,17.40
2022-09-25T23:02:14.625Z,17.40
2022-09-25T23:05:04.295Z,17.40
2022-09-25T23:07:51.915Z,17.50
2022-09-25T23:11:02.498Z,17.50
2022-09-25T23:13:44.843Z,17.40
2022-09-25T23:16:32.320Z,17.30
2022-09-25T23:19:18.698Z,17.30
2022-09-25T23:22:05.282Z,17.30
2022-09-25T23:24:50.911Z,17.20
2022-09-25T23:27:36.451Z,17.30
2022-09-25T23:30:22.054Z,17.20
2022-09-25T23:33:07.776Z,17.20
2022-09-25T23:35:53.670Z,17.30
2022-09-25T23:38:39.454Z,17.20
2022-09-25T23:41:29.030Z,17.20
2022-09-25T23:44:14.633Z,17.20
2022-09-25T23:47:00.101Z,17.10
2022-09-25T23:49:45.639Z,17.00
2022-09-25T23:52:31.295Z,17.00
2022-09-25T23:55:16.802Z,16.90
2022-09-25T23:58:02.313Z,16.90
